METAR
Diposting tanggal: 24 November 2019

Pukul :

Isi :

METAR WAGI 220130Z 30005KT 9999 SCT012 28/25 Q1013 NOSIG=